sensor_id;sensor_type;location;lat;lon;timestamp;P1;durP1;ratioP1;P2;durP2;ratioP2
25419;SDS011;13354;48.174;11.566;2022-11-02T00:00:12;7.43;;;3.03;;
25419;SDS011;13354;48.174;11.566;2022-11-02T00:02:39;5.13;;;3.13;;
25419;SDS011;13354;48.174;11.566;2022-11-02T00:05:05;8.80;;;3.03;;
25419;SDS011;13354;48.174;11.566;2022-11-02T00:07:35;7.28;;;3.10;;
25419;SDS011;13354;48.174;11.566;2022-11-02T00:10:01;3.70;;;2.60;;
25419;SDS011;13354;48.174;11.566;2022-11-02T00:12:26;5.65;;;2.75;;
25419;SDS011;13354;48.174;11.566;2022-11-02T00:14:52;8.23;;;2.75;;
25419;SDS011;13354;48.174;11.566;2022-11-02T00:17:17;6.30;;;3.05;;
25419;SDS011;13354;48.174;11.566;2022-11-02T00:19:42;6.50;;;3.58;;
25419;SDS011;13354;48.174;11.566;2022-11-02T00:22:08;9.10;;;5.65;;
25419;SDS011;13354;48.174;11.566;2022-11-02T00:24:33;7.32;;;4.47;;
25419;SDS011;13354;48.174;11.566;2022-11-02T00:26:59;8.15;;;4.60;;
25419;SDS011;13354;48.174;11.566;2022-11-02T00:29:25;9.77;;;4.45;;
25419;SDS011;13354;48.174;11.566;2022-11-02T00:31:51;12.18;;;7.97;;
25419;SDS011;13354;48.174;11.566;2022-11-02T00:34:17;7.90;;;3.60;;
25419;SDS011;13354;48.174;11.566;2022-11-02T00:36:42;6.65;;;3.25;;
25419;SDS011;13354;48.174;11.566;2022-11-02T00:39:08;6.10;;;2.80;;
25419;SDS011;13354;48.174;11.566;2022-11-02T00:41:33;4.75;;;3.17;;
25419;SDS011;13354;48.174;11.566;2022-11-02T00:43:59;7.38;;;2.90;;
25419;SDS011;13354;48.174;11.566;2022-11-02T00:46:27;5.43;;;2.92;;
25419;SDS011;13354;48.174;11.566;2022-11-02T00:48:53;6.50;;;2.63;;
25419;SDS011;13354;48.174;11.566;2022-11-02T00:51:18;4.50;;;2.78;;
25419;SDS011;13354;48.174;11.566;2022-11-02T00:53:44;5.90;;;3.17;;
25419;SDS011;13354;48.174;11.566;2022-11-02T00:56:09;3.13;;;2.65;;
25419;SDS011;13354;48.174;11.566;2022-11-02T00:58:35;4.13;;;2.53;;
25419;SDS011;13354;48.174;11.566;2022-11-02T01:01:04;5.03;;;2.80;;
25419;SDS011;13354;48.174;11.566;2022-11-02T01:03:30;6.50;;;2.92;;
25419;SDS011;13354;48.174;11.566;2022-11-02T01:05:56;6.30;;;3.00;;
25419;SDS011;13354;48.174;11.566;2022-11-02T01:08:22;4.55;;;2.58;;
25419;SDS011;13354;48.174;11.566;2022-11-02T01:10:47;6.15;;;2.67;;
25419;SDS011;13354;48.174;11.566;2022-11-02T01:13:12;4.85;;;3.03;;
25419;SDS011;13354;48.174;11.566;2022-11-02T01:15:38;6.72;;;2.78;;
25419;SDS011;13354;48.174;11.566;2022-11-02T01:18:04;8.75;;;2.92;;
25419;SDS011;13354;48.174;11.566;2022-11-02T01:20:39;8.45;;;3.08;;
25419;SDS011;13354;48.174;11.566;2022-11-02T01:23:05;4.00;;;2.63;;
25419;SDS011;13354;48.174;11.566;2022-11-02T01:25:30;4.90;;;3.05;;
25419;SDS011;13354;48.174;11.566;2022-11-02T01:28:02;3.30;;;2.70;;
25419;SDS011;13354;48.174;11.566;2022-11-02T01:33:12;5.65;;;3.25;;
25419;SDS011;13354;48.174;11.566;2022-11-02T01:35:38;4.20;;;2.92;;
25419;SDS011;13354;48.174;11.566;2022-11-02T01:38:06;5.82;;;3.03;;
25419;SDS011;13354;48.174;11.566;2022-11-02T01:40:44;5.32;;;2.78;;
25419;SDS011;13354;48.174;11.566;2022-11-02T01:43:23;6.00;;;3.10;;
25419;SDS011;13354;48.174;11.566;2022-11-02T01:45:58;6.32;;;3.30;;
25419;SDS011;13354;48.174;11.566;2022-11-02T01:48:30;4.97;;;3.88;;
25419;SDS011;13354;48.174;11.566;2022-11-02T01:50:59;5.32;;;3.40;;
25419;SDS011;13354;48.174;11.566;2022-11-02T01:53:29;6.75;;;3.03;;
25419;SDS011;13354;48.174;11.566;2022-11-02T01:55:57;5.40;;;3.00;;
25419;SDS011;13354;48.174;11.566;2022-11-02T01:58:25;5.03;;;3.17;;
25419;SDS011;13354;48.174;11.566;2022-11-02T02:00:51;6.78;;;3.30;;
25419;SDS011;13354;48.174;11.566;2022-11-02T02:03:17;5.78;;;2.67;;
25419;SDS011;13354;48.174;11.566;2022-11-02T02:08:34;3.63;;;2.03;;
25419;SDS011;13354;48.174;11.566;2022-11-02T02:11:19;5.70;;;2.63;;
25419;SDS011;13354;48.174;11.566;2022-11-02T02:13:59;4.28;;;2.80;;
25419;SDS011;13354;48.174;11.566;2022-11-02T02:19:27;5.53;;;2.83;;
25419;SDS011;13354;48.174;11.566;2022-11-02T02:33:39;5.00;;;2.58;;
25419;SDS011;13354;48.174;11.566;2022-11-02T02:36:19;4.25;;;2.40;;
25419;SDS011;13354;48.174;11.566;2022-11-02T02:39:01;4.32;;;2.45;;
25419;SDS011;13354;48.174;11.566;2022-11-02T02:41:38;4.15;;;2.40;;
25419;SDS011;13354;48.174;11.566;2022-11-02T02:44:08;6.75;;;2.35;;
25419;SDS011;13354;48.174;11.566;2022-11-02T02:46:44;3.38;;;2.10;;
25419;SDS011;13354;48.174;11.566;2022-11-02T02:49:17;4.53;;;2.40;;
25419;SDS011;13354;48.174;11.566;2022-11-02T02:51:51;3.92;;;2.30;;
25419;SDS011;13354;48.174;11.566;2022-11-02T02:54:20;7.28;;;3.17;;
25419;SDS011;13354;48.174;11.566;2022-11-02T02:56:53;4.18;;;2.50;;
25419;SDS011;13354;48.174;11.566;2022-11-02T02:59:32;5.22;;;2.78;;
25419;SDS011;13354;48.174;11.566;2022-11-02T03:02:04;7.85;;;2.90;;
25419;SDS011;13354;48.174;11.566;2022-11-02T03:04:31;5.22;;;2.85;;
25419;SDS011;13354;48.174;11.566;2022-11-02T03:06:57;6.18;;;2.45;;
25419;SDS011;13354;48.174;11.566;2022-11-02T03:17:29;6.82;;;3.10;;
25419;SDS011;13354;48.174;11.566;2022-11-02T03:20:35;5.78;;;3.40;;
25419;SDS011;13354;48.174;11.566;2022-11-02T03:23:24;8.05;;;3.45;;
25419;SDS011;13354;48.174;11.566;2022-11-02T03:31:07;7.65;;;2.88;;
25419;SDS011;13354;48.174;11.566;2022-11-02T03:33:40;5.22;;;3.10;;
25419;SDS011;13354;48.174;11.566;2022-11-02T03:36:16;7.00;;;3.50;;
25419;SDS011;13354;48.174;11.566;2022-11-02T03:38:52;6.32;;;3.30;;
25419;SDS011;13354;48.174;11.566;2022-11-02T03:41:23;5.50;;;3.40;;
25419;SDS011;13354;48.174;11.566;2022-11-02T03:43:52;9.43;;;3.70;;
25419;SDS011;13354;48.174;11.566;2022-11-02T03:46:23;14.60;;;8.57;;
25419;SDS011;13354;48.174;11.566;2022-11-02T03:48:51;11.90;;;5.30;;
25419;SDS011;13354;48.174;11.566;2022-11-02T03:51:19;8.77;;;4.95;;
25419;SDS011;13354;48.174;11.566;2022-11-02T03:53:55;8.90;;;5.47;;
25419;SDS011;13354;48.174;11.566;2022-11-02T03:59:12;9.57;;;4.70;;
25419;SDS011;13354;48.174;11.566;2022-11-02T04:01:39;7.50;;;4.43;;
25419;SDS011;13354;48.174;11.566;2022-11-02T04:04:07;10.13;;;4.97;;
25419;SDS011;13354;48.174;11.566;2022-11-02T04:06:33;7.53;;;5.00;;
25419;SDS011;13354;48.174;11.566;2022-11-02T04:08:59;6.88;;;4.00;;
25419;SDS011;13354;48.174;11.566;2022-11-02T04:11:28;9.00;;;4.72;;
25419;SDS011;13354;48.174;11.566;2022-11-02T04:14:13;7.07;;;3.53;;
25419;SDS011;13354;48.174;11.566;2022-11-02T04:16:58;8.02;;;2.97;;
25419;SDS011;13354;48.174;11.566;2022-11-02T04:19:42;5.10;;;3.05;;
25419;SDS011;13354;48.174;11.566;2022-11-02T04:22:10;8.35;;;3.40;;
25419;SDS011;13354;48.174;11.566;2022-11-02T04:24:54;6.82;;;3.17;;
25419;SDS011;13354;48.174;11.566;2022-11-02T04:27:38;8.43;;;3.67;;
25419;SDS011;13354;48.174;11.566;2022-11-02T04:30:06;7.45;;;4.15;;
25419;SDS011;13354;48.174;11.566;2022-11-02T04:32:39;5.43;;;3.30;;
25419;SDS011;13354;48.174;11.566;2022-11-02T04:35:27;6.25;;;3.35;;
25419;SDS011;13354;48.174;11.566;2022-11-02T04:37:52;8.52;;;3.55;;
25419;SDS011;13354;48.174;11.566;2022-11-02T04:40:36;8.00;;;3.83;;
25419;SDS011;13354;48.174;11.566;2022-11-02T04:43:02;6.18;;;3.92;;
25419;SDS011;13354;48.174;11.566;2022-11-02T04:45:33;6.13;;;3.30;;
25419;SDS011;13354;48.174;11.566;2022-11-02T04:48:03;5.13;;;3.25;;
25419;SDS011;13354;48.174;11.566;2022-11-02T04:50:34;10.65;;;3.90;;
25419;SDS011;13354;48.174;11.566;2022-11-02T04:53:01;5.95;;;3.72;;
25419;SDS011;13354;48.174;11.566;2022-11-02T04:55:28;7.85;;;3.85;;
25419;SDS011;13354;48.174;11.566;2022-11-02T04:57:54;7.85;;;3.80;;
25419;SDS011;13354;48.174;11.566;2022-11-02T05:00:20;8.52;;;4.45;;
25419;SDS011;13354;48.174;11.566;2022-11-02T05:02:46;6.20;;;3.60;;
25419;SDS011;13354;48.174;11.566;2022-11-02T05:05:13;7.78;;;4.10;;
25419;SDS011;13354;48.174;11.566;2022-11-02T05:07:39;6.55;;;4.05;;
25419;SDS011;13354;48.174;11.566;2022-11-02T05:10:05;7.57;;;4.05;;
25419;SDS011;13354;48.174;11.566;2022-11-02T05:12:30;8.40;;;3.97;;
25419;SDS011;13354;48.174;11.566;2022-11-02T05:14:58;11.07;;;4.30;;
25419;SDS011;13354;48.174;11.566;2022-11-02T05:17:24;9.68;;;4.05;;
25419;SDS011;13354;48.174;11.566;2022-11-02T05:19:49;7.57;;;3.65;;
25419;SDS011;13354;48.174;11.566;2022-11-02T05:22:15;5.65;;;3.40;;
25419;SDS011;13354;48.174;11.566;2022-11-02T05:24:40;11.00;;;5.10;;
25419;SDS011;13354;48.174;11.566;2022-11-02T05:27:05;8.35;;;4.30;;
25419;SDS011;13354;48.174;11.566;2022-11-02T05:29:31;7.60;;;4.13;;
25419;SDS011;13354;48.174;11.566;2022-11-02T05:31:56;10.40;;;4.20;;
25419;SDS011;13354;48.174;11.566;2022-11-02T05:34:22;6.80;;;4.28;;
25419;SDS011;13354;48.174;11.566;2022-11-02T05:36:48;7.72;;;3.60;;
25419;SDS011;13354;48.174;11.566;2022-11-02T05:39:13;6.85;;;3.83;;
25419;SDS011;13354;48.174;11.566;2022-11-02T05:41:39;7.50;;;4.13;;
25419;SDS011;13354;48.174;11.566;2022-11-02T05:44:04;7.30;;;3.83;;
25419;SDS011;13354;48.174;11.566;2022-11-02T05:46:32;6.88;;;3.50;;
25419;SDS011;13354;48.174;11.566;2022-11-02T05:48:58;7.13;;;3.70;;
25419;SDS011;13354;48.174;11.566;2022-11-02T05:51:23;6.43;;;3.03;;
25419;SDS011;13354;48.174;11.566;2022-11-02T05:53:49;9.80;;;3.70;;
25419;SDS011;13354;48.174;11.566;2022-11-02T05:56:14;6.57;;;3.65;;
25419;SDS011;13354;48.174;11.566;2022-11-02T05:58:40;5.30;;;3.15;;
25419;SDS011;13354;48.174;11.566;2022-11-02T06:01:06;7.05;;;3.63;;
25419;SDS011;13354;48.174;11.566;2022-11-02T06:03:32;6.35;;;3.30;;
25419;SDS011;13354;48.174;11.566;2022-11-02T06:05:59;11.18;;;3.92;;
25419;SDS011;13354;48.174;11.566;2022-11-02T06:08:36;7.10;;;3.10;;
25419;SDS011;13354;48.174;11.566;2022-11-02T06:11:06;6.93;;;3.30;;
25419;SDS011;13354;48.174;11.566;2022-11-02T06:13:33;8.55;;;3.42;;
25419;SDS011;13354;48.174;11.566;2022-11-02T06:15:59;7.63;;;3.33;;
25419;SDS011;13354;48.174;11.566;2022-11-02T06:18:29;6.03;;;3.50;;
25419;SDS011;13354;48.174;11.566;2022-11-02T06:20:56;6.47;;;3.10;;
25419;SDS011;13354;48.174;11.566;2022-11-02T06:23:22;6.13;;;3.33;;
25419;SDS011;13354;48.174;11.566;2022-11-02T06:25:51;10.15;;;3.55;;
25419;SDS011;13354;48.174;11.566;2022-11-02T06:28:17;6.97;;;3.53;;
25419;SDS011;13354;48.174;11.566;2022-11-02T06:30:46;7.78;;;3.80;;
25419;SDS011;13354;48.174;11.566;2022-11-02T06:33:11;6.47;;;3.60;;
25419;SDS011;13354;48.174;11.566;2022-11-02T06:35:37;11.13;;;3.78;;
25419;SDS011;13354;48.174;11.566;2022-11-02T06:38:03;10.73;;;3.83;;
25419;SDS011;13354;48.174;11.566;2022-11-02T06:40:28;13.52;;;3.60;;
25419;SDS011;13354;48.174;11.566;2022-11-02T06:42:54;10.48;;;3.92;;
25419;SDS011;13354;48.174;11.566;2022-11-02T06:45:20;8.90;;;3.80;;
25419;SDS011;13354;48.174;11.566;2022-11-02T06:47:46;6.80;;;3.30;;
25419;SDS011;13354;48.174;11.566;2022-11-02T06:50:12;10.63;;;3.78;;
25419;SDS011;13354;48.174;11.566;2022-11-02T06:52:42;7.82;;;3.58;;
25419;SDS011;13354;48.174;11.566;2022-11-02T06:55:08;9.95;;;3.95;;
25419;SDS011;13354;48.174;11.566;2022-11-02T06:57:35;10.00;;;3.80;;
25419;SDS011;13354;48.174;11.566;2022-11-02T07:00:01;9.80;;;3.72;;
25419;SDS011;13354;48.174;11.566;2022-11-02T07:02:29;7.18;;;3.22;;
25419;SDS011;13354;48.174;11.566;2022-11-02T07:04:55;7.82;;;3.67;;
25419;SDS011;13354;48.174;11.566;2022-11-02T07:07:20;8.73;;;4.00;;
25419;SDS011;13354;48.174;11.566;2022-11-02T07:09:47;7.50;;;3.90;;
25419;SDS011;13354;48.174;11.566;2022-11-02T07:12:12;9.60;;;3.60;;
25419;SDS011;13354;48.174;11.566;2022-11-02T07:14:38;7.90;;;3.70;;
25419;SDS011;13354;48.174;11.566;2022-11-02T07:17:03;17.98;;;3.83;;
25419;SDS011;13354;48.174;11.566;2022-11-02T07:19:28;10.13;;;3.95;;
25419;SDS011;13354;48.174;11.566;2022-11-02T07:21:54;6.85;;;3.42;;
25419;SDS011;13354;48.174;11.566;2022-11-02T07:24:19;10.02;;;3.75;;
25419;SDS011;13354;48.174;11.566;2022-11-02T07:26:46;9.48;;;3.28;;
25419;SDS011;13354;48.174;11.566;2022-11-02T07:29:13;8.18;;;3.38;;
25419;SDS011;13354;48.174;11.566;2022-11-02T07:31:39;9.90;;;3.80;;
25419;SDS011;13354;48.174;11.566;2022-11-02T07:34:04;8.85;;;3.45;;
25419;SDS011;13354;48.174;11.566;2022-11-02T07:36:29;9.80;;;3.20;;
25419;SDS011;13354;48.174;11.566;2022-11-02T07:38:55;15.38;;;4.28;;
25419;SDS011;13354;48.174;11.566;2022-11-02T07:41:20;8.73;;;3.38;;
25419;SDS011;13354;48.174;11.566;2022-11-02T07:43:45;10.63;;;3.30;;
25419;SDS011;13354;48.174;11.566;2022-11-02T07:46:11;13.90;;;4.28;;
25419;SDS011;13354;48.174;11.566;2022-11-02T07:48:36;11.25;;;3.80;;
25419;SDS011;13354;48.174;11.566;2022-11-02T07:51:02;8.10;;;3.58;;
25419;SDS011;13354;48.174;11.566;2022-11-02T07:53:27;12.57;;;4.10;;
25419;SDS011;13354;48.174;11.566;2022-11-02T07:55:52;13.32;;;3.72;;
25419;SDS011;13354;48.174;11.566;2022-11-02T07:58:18;8.40;;;3.28;;
25419;SDS011;13354;48.174;11.566;2022-11-02T08:00:43;8.52;;;3.60;;
25419;SDS011;13354;48.174;11.566;2022-11-02T08:03:09;15.35;;;7.28;;
25419;SDS011;13354;48.174;11.566;2022-11-02T08:05:39;8.93;;;3.40;;
25419;SDS011;13354;48.174;11.566;2022-11-02T08:08:06;9.32;;;3.20;;
25419;SDS011;13354;48.174;11.566;2022-11-02T08:10:34;7.82;;;2.95;;
25419;SDS011;13354;48.174;11.566;2022-11-02T08:13:00;7.78;;;3.45;;
25419;SDS011;13354;48.174;11.566;2022-11-02T08:15:25;8.30;;;3.03;;
25419;SDS011;13354;48.174;11.566;2022-11-02T08:18:08;7.78;;;2.30;;
25419;SDS011;13354;48.174;11.566;2022-11-02T08:20:54;8.82;;;3.33;;
25419;SDS011;13354;48.174;11.566;2022-11-02T08:23:27;8.40;;;2.40;;
25419;SDS011;13354;48.174;11.566;2022-11-02T08:26:04;5.35;;;2.50;;
25419;SDS011;13354;48.174;11.566;2022-11-02T08:28:30;7.28;;;2.30;;
25419;SDS011;13354;48.174;11.566;2022-11-02T08:30:59;9.52;;;2.42;;
25419;SDS011;13354;48.174;11.566;2022-11-02T08:33:28;4.63;;;2.10;;
25419;SDS011;13354;48.174;11.566;2022-11-02T08:36:02;5.07;;;2.10;;
25419;SDS011;13354;48.174;11.566;2022-11-02T08:38:31;6.68;;;2.10;;
25419;SDS011;13354;48.174;11.566;2022-11-02T08:40:56;6.22;;;1.98;;
25419;SDS011;13354;48.174;11.566;2022-11-02T08:43:22;5.80;;;2.03;;
25419;SDS011;13354;48.174;11.566;2022-11-02T08:45:48;6.75;;;2.03;;
25419;SDS011;13354;48.174;11.566;2022-11-02T08:48:14;5.55;;;2.20;;
25419;SDS011;13354;48.174;11.566;2022-11-02T08:50:46;6.93;;;2.03;;
25419;SDS011;13354;48.174;11.566;2022-11-02T08:53:12;4.70;;;2.10;;
25419;SDS011;13354;48.174;11.566;2022-11-02T08:55:37;5.57;;;2.03;;
25419;SDS011;13354;48.174;11.566;2022-11-02T08:58:03;7.20;;;2.15;;
25419;SDS011;13354;48.174;11.566;2022-11-02T09:00:30;6.35;;;2.05;;
25419;SDS011;13354;48.174;11.566;2022-11-02T09:03:01;6.22;;;1.77;;
25419;SDS011;13354;48.174;11.566;2022-11-02T09:05:29;8.13;;;1.80;;
25419;SDS011;13354;48.174;11.566;2022-11-02T09:08:00;9.15;;;2.50;;
25419;SDS011;13354;48.174;11.566;2022-11-02T09:10:28;9.45;;;2.00;;
25419;SDS011;13354;48.174;11.566;2022-11-02T09:12:55;7.90;;;1.80;;
25419;SDS011;13354;48.174;11.566;2022-11-02T09:15:22;5.30;;;1.40;;
25419;SDS011;13354;48.174;11.566;2022-11-02T09:17:48;5.03;;;1.85;;
25419;SDS011;13354;48.174;11.566;2022-11-02T09:20:16;4.43;;;1.50;;
25419;SDS011;13354;48.174;11.566;2022-11-02T09:22:43;7.35;;;1.63;;
25419;SDS011;13354;48.174;11.566;2022-11-02T09:25:09;5.93;;;1.80;;
25419;SDS011;13354;48.174;11.566;2022-11-02T09:27:35;7.32;;;2.30;;
25419;SDS011;13354;48.174;11.566;2022-11-02T09:30:00;7.47;;;2.03;;
25419;SDS011;13354;48.174;11.566;2022-11-02T09:32:27;4.60;;;1.63;;
25419;SDS011;13354;48.174;11.566;2022-11-02T09:34:53;5.03;;;1.33;;
25419;SDS011;13354;48.174;11.566;2022-11-02T09:37:19;8.18;;;1.80;;
25419;SDS011;13354;48.174;11.566;2022-11-02T09:39:44;11.80;;;1.88;;
25419;SDS011;13354;48.174;11.566;2022-11-02T09:42:11;8.32;;;1.92;;
25419;SDS011;13354;48.174;11.566;2022-11-02T09:45:07;8.65;;;1.48;;
25419;SDS011;13354;48.174;11.566;2022-11-02T09:47:40;6.15;;;1.92;;
25419;SDS011;13354;48.174;11.566;2022-11-02T09:50:20;6.28;;;1.67;;
25419;SDS011;13354;48.174;11.566;2022-11-02T09:52:58;7.45;;;1.70;;
25419;SDS011;13354;48.174;11.566;2022-11-02T09:55:30;5.32;;;1.50;;
25419;SDS011;13354;48.174;11.566;2022-11-02T09:57:59;9.65;;;1.92;;
25419;SDS011;13354;48.174;11.566;2022-11-02T10:00:39;8.93;;;2.08;;
25419;SDS011;13354;48.174;11.566;2022-11-02T10:03:17;7.82;;;1.73;;
25419;SDS011;13354;48.174;11.566;2022-11-02T10:05:53;9.10;;;2.00;;
25419;SDS011;13354;48.174;11.566;2022-11-02T10:08:34;6.68;;;1.55;;
25419;SDS011;13354;48.174;11.566;2022-11-02T10:19:27;11.90;;;2.25;;
25419;SDS011;13354;48.174;11.566;2022-11-02T10:21:56;7.22;;;1.65;;
25419;SDS011;13354;48.174;11.566;2022-11-02T10:24:29;6.47;;;1.60;;
25419;SDS011;13354;48.174;11.566;2022-11-02T10:27:05;8.73;;;2.08;;
25419;SDS011;13354;48.174;11.566;2022-11-02T10:29:45;8.45;;;2.03;;
25419;SDS011;13354;48.174;11.566;2022-11-02T10:32:18;5.35;;;1.67;;
25419;SDS011;13354;48.174;11.566;2022-11-02T10:34:44;9.77;;;1.70;;
25419;SDS011;13354;48.174;11.566;2022-11-02T10:45:47;5.05;;;1.50;;
25419;SDS011;13354;48.174;11.566;2022-11-02T10:48:29;13.98;;;1.77;;
25419;SDS011;13354;48.174;11.566;2022-11-02T10:56:17;6.10;;;1.40;;
25419;SDS011;13354;48.174;11.566;2022-11-02T11:01:18;6.30;;;1.30;;
25419;SDS011;13354;48.174;11.566;2022-11-02T11:04:03;5.55;;;1.60;;
25419;SDS011;13354;48.174;11.566;2022-11-02T11:06:40;10.35;;;1.63;;
25419;SDS011;13354;48.174;11.566;2022-11-02T11:11:57;4.60;;;1.35;;
25419;SDS011;13354;48.174;11.566;2022-11-02T11:14:28;5.88;;;1.50;;
25419;SDS011;13354;48.174;11.566;2022-11-02T11:16:57;6.50;;;1.52;;
25419;SDS011;13354;48.174;11.566;2022-11-02T11:21:56;5.80;;;1.40;;
25419;SDS011;13354;48.174;11.566;2022-11-02T11:24:26;7.30;;;1.70;;
25419;SDS011;13354;48.174;11.566;2022-11-02T11:27:15;5.63;;;1.58;;
25419;SDS011;13354;48.174;11.566;2022-11-02T11:29:50;6.18;;;1.50;;
25419;SDS011;13354;48.174;11.566;2022-11-02T11:32:19;7.50;;;1.35;;
25419;SDS011;13354;48.174;11.566;2022-11-02T11:37:27;6.57;;;1.60;;
25419;SDS011;13354;48.174;11.566;2022-11-02T11:40:03;6.25;;;1.50;;
25419;SDS011;13354;48.174;11.566;2022-11-02T11:42:43;4.20;;;1.65;;
25419;SDS011;13354;48.174;11.566;2022-11-02T11:48:06;5.95;;;1.42;;
25419;SDS011;13354;48.174;11.566;2022-11-02T11:50:44;5.05;;;1.70;;
25419;SDS011;13354;48.174;11.566;2022-11-02T11:55:46;6.80;;;1.30;;
25419;SDS011;13354;48.174;11.566;2022-11-02T11:58:20;9.05;;;1.63;;
25419;SDS011;13354;48.174;11.566;2022-11-02T12:03:32;8.90;;;1.63;;
25419;SDS011;13354;48.174;11.566;2022-11-02T12:09:22;7.65;;;1.67;;
25419;SDS011;13354;48.174;11.566;2022-11-02T12:14:51;6.50;;;1.42;;
25419;SDS011;13354;48.174;11.566;2022-11-02T12:20:33;5.65;;;1.52;;
25419;SDS011;13354;48.174;11.566;2022-11-02T12:31:41;5.90;;;1.33;;
25419;SDS011;13354;48.174;11.566;2022-11-02T12:34:31;7.32;;;1.35;;
25419;SDS011;13354;48.174;11.566;2022-11-02T12:37:43;5.65;;;1.15;;
25419;SDS011;13354;48.174;11.566;2022-11-02T12:41:06;7.13;;;1.55;;
25419;SDS011;13354;48.174;11.566;2022-11-02T12:43:29;6.32;;;1.30;;
25419;SDS011;13354;48.174;11.566;2022-11-02T12:48:55;3.75;;;1.10;;
25419;SDS011;13354;48.174;11.566;2022-11-02T12:51:35;6.72;;;1.20;;
25419;SDS011;13354;48.174;11.566;2022-11-02T12:54:27;3.88;;;0.90;;
25419;SDS011;13354;48.174;11.566;2022-11-02T12:56:59;2.95;;;1.00;;
25419;SDS011;13354;48.174;11.566;2022-11-02T12:59:26;5.47;;;1.00;;
25419;SDS011;13354;48.174;11.566;2022-11-02T13:01:55;4.50;;;1.08;;
25419;SDS011;13354;48.174;11.566;2022-11-02T13:04:28;3.30;;;0.80;;
25419;SDS011;13354;48.174;11.566;2022-11-02T13:07:00;4.78;;;1.23;;
25419;SDS011;13354;48.174;11.566;2022-11-02T13:09:35;3.70;;;0.90;;
25419;SDS011;13354;48.174;11.566;2022-11-02T13:12:14;2.40;;;0.90;;
25419;SDS011;13354;48.174;11.566;2022-11-02T13:14:54;2.35;;;0.77;;
25419;SDS011;13354;48.174;11.566;2022-11-02T13:17:37;1.55;;;0.52;;
25419;SDS011;13354;48.174;11.566;2022-11-02T13:20:17;2.00;;;0.80;;
25419;SDS011;13354;48.174;11.566;2022-11-02T13:23:33;2.60;;;0.95;;
25419;SDS011;13354;48.174;11.566;2022-11-02T13:26:01;3.08;;;0.82;;
25419;SDS011;13354;48.174;11.566;2022-11-02T13:28:50;2.33;;;1.00;;
25419;SDS011;13354;48.174;11.566;2022-11-02T13:33:52;4.00;;;1.60;;
25419;SDS011;13354;48.174;11.566;2022-11-02T13:36:19;5.10;;;2.47;;
25419;SDS011;13354;48.174;11.566;2022-11-02T13:38:52;3.25;;;1.10;;
25419;SDS011;13354;48.174;11.566;2022-11-02T13:41:32;2.72;;;0.88;;
25419;SDS011;13354;48.174;11.566;2022-11-02T13:46:59;4.07;;;1.02;;
25419;SDS011;13354;48.174;11.566;2022-11-02T13:49:34;4.65;;;1.40;;
25419;SDS011;13354;48.174;11.566;2022-11-02T13:52:13;1.50;;;0.75;;
25419;SDS011;13354;48.174;11.566;2022-11-02T13:54:44;4.63;;;0.90;;
25419;SDS011;13354;48.174;11.566;2022-11-02T13:57:29;4.97;;;1.17;;
25419;SDS011;13354;48.174;11.566;2022-11-02T14:00:01;2.67;;;1.00;;
25419;SDS011;13354;48.174;11.566;2022-11-02T14:02:32;6.35;;;1.52;;
25419;SDS011;13354;48.174;11.566;2022-11-02T14:05:01;3.00;;;1.00;;
25419;SDS011;13354;48.174;11.566;2022-11-02T14:07:27;2.78;;;1.10;;
25419;SDS011;13354;48.174;11.566;2022-11-02T14:12:43;6.13;;;0.98;;
25419;SDS011;13354;48.174;11.566;2022-11-02T14:28:30;2.55;;;0.93;;
25419;SDS011;13354;48.174;11.566;2022-11-02T14:33:36;3.70;;;1.10;;
25419;SDS011;13354;48.174;11.566;2022-11-02T14:36:09;4.57;;;0.98;;
25419;SDS011;13354;48.174;11.566;2022-11-02T14:44:02;2.38;;;0.95;;
25419;SDS011;13354;48.174;11.566;2022-11-02T14:46:59;3.83;;;0.90;;
25419;SDS011;13354;48.174;11.566;2022-11-02T14:49:33;4.78;;;2.53;;
25419;SDS011;13354;48.174;11.566;2022-11-02T14:54:45;2.97;;;1.40;;
25419;SDS011;13354;48.174;11.566;2022-11-02T14:57:21;4.32;;;1.42;;
25419;SDS011;13354;48.174;11.566;2022-11-02T14:59:52;8.90;;;1.30;;
25419;SDS011;13354;48.174;11.566;2022-11-02T15:02:23;4.55;;;1.10;;
25419;SDS011;13354;48.174;11.566;2022-11-02T15:04:58;4.93;;;1.27;;
25419;SDS011;13354;48.174;11.566;2022-11-02T15:07:30;4.22;;;0.82;;
25419;SDS011;13354;48.174;11.566;2022-11-02T15:12:42;6.10;;;3.15;;
25419;SDS011;13354;48.174;11.566;2022-11-02T15:23:45;4.55;;;1.00;;
25419;SDS011;13354;48.174;11.566;2022-11-02T15:26:18;4.70;;;1.00;;
25419;SDS011;13354;48.174;11.566;2022-11-02T15:28:58;4.35;;;1.30;;
25419;SDS011;13354;48.174;11.566;2022-11-02T15:31:26;5.78;;;1.45;;
25419;SDS011;13354;48.174;11.566;2022-11-02T15:33:54;4.13;;;1.10;;
25419;SDS011;13354;48.174;11.566;2022-11-02T15:38:55;4.47;;;1.30;;
25419;SDS011;13354;48.174;11.566;2022-11-02T15:41:30;4.93;;;1.50;;
25419;SDS011;13354;48.174;11.566;2022-11-02T15:47:16;4.38;;;1.30;;
25419;SDS011;13354;48.174;11.566;2022-11-02T15:52:45;7.10;;;1.70;;
25419;SDS011;13354;48.174;11.566;2022-11-02T15:55:40;4.85;;;1.73;;
25419;SDS011;13354;48.174;11.566;2022-11-02T15:58:20;6.32;;;1.42;;
25419;SDS011;13354;48.174;11.566;2022-11-02T16:03:46;6.13;;;2.50;;
25419;SDS011;13354;48.174;11.566;2022-11-02T16:06:13;6.40;;;2.45;;
25419;SDS011;13354;48.174;11.566;2022-11-02T16:08:39;4.13;;;1.60;;
25419;SDS011;13354;48.174;11.566;2022-11-02T16:11:10;7.78;;;3.33;;
25419;SDS011;13354;48.174;11.566;2022-11-02T16:13:37;6.55;;;2.33;;
25419;SDS011;13354;48.174;11.566;2022-11-02T16:16:03;4.18;;;1.40;;
25419;SDS011;13354;48.174;11.566;2022-11-02T16:18:35;5.28;;;1.67;;
25419;SDS011;13354;48.174;11.566;2022-11-02T16:21:02;7.15;;;2.20;;
25419;SDS011;13354;48.174;11.566;2022-11-02T16:23:31;10.10;;;2.67;;
25419;SDS011;13354;48.174;11.566;2022-11-02T16:25:59;6.18;;;2.38;;
25419;SDS011;13354;48.174;11.566;2022-11-02T16:28:28;8.52;;;2.03;;
25419;SDS011;13354;48.174;11.566;2022-11-02T16:30:59;7.05;;;1.88;;
25419;SDS011;13354;48.174;11.566;2022-11-02T16:33:27;4.60;;;1.63;;
25419;SDS011;13354;48.174;11.566;2022-11-02T16:35:58;8.98;;;2.17;;
25419;SDS011;13354;48.174;11.566;2022-11-02T16:38:24;8.15;;;2.10;;
25419;SDS011;13354;48.174;11.566;2022-11-02T16:40:50;3.40;;;1.67;;
25419;SDS011;13354;48.174;11.566;2022-11-02T16:43:16;4.57;;;1.70;;
25419;SDS011;13354;48.174;11.566;2022-11-02T16:45:49;5.63;;;2.20;;
25419;SDS011;13354;48.174;11.566;2022-11-02T16:48:27;4.55;;;1.75;;
25419;SDS011;13354;48.174;11.566;2022-11-02T16:53:27;3.40;;;1.70;;
25419;SDS011;13354;48.174;11.566;2022-11-02T16:55:58;5.47;;;1.90;;
25419;SDS011;13354;48.174;11.566;2022-11-02T16:58:46;5.28;;;2.35;;
25419;SDS011;13354;48.174;11.566;2022-11-02T17:01:55;5.22;;;2.92;;
25419;SDS011;13354;48.174;11.566;2022-11-02T17:04:16;8.00;;;2.35;;
25419;SDS011;13354;48.174;11.566;2022-11-02T17:06:42;6.30;;;2.10;;
25419;SDS011;13354;48.174;11.566;2022-11-02T17:09:28;6.95;;;2.33;;
25419;SDS011;13354;48.174;11.566;2022-11-02T17:11:56;7.13;;;2.33;;
25419;SDS011;13354;48.174;11.566;2022-11-02T17:14:24;8.55;;;2.40;;
25419;SDS011;13354;48.174;11.566;2022-11-02T17:17:04;9.98;;;2.45;;
25419;SDS011;13354;48.174;11.566;2022-11-02T17:22:50;9.48;;;2.75;;
25419;SDS011;13354;48.174;11.566;2022-11-02T17:25:33;6.88;;;2.25;;
25419;SDS011;13354;48.174;11.566;2022-11-02T17:28:01;6.85;;;2.90;;
25419;SDS011;13354;48.174;11.566;2022-11-02T17:32:54;6.60;;;2.20;;
25419;SDS011;13354;48.174;11.566;2022-11-02T17:35:31;9.07;;;2.17;;